Time;durP1;ratioP1;P1;durP2;ratioP2;P2;SDS_P1;SDS_P2;PMS_P1;PMS_P2;Temp;Humidity;BMP_temperature;BMP_pressure;BME280_temperature;BME280_humidity;BME280_pressure;Samples;Min_cycle;Max_cycle;Signal;HPM_P1;HPM_P2
2023/11/21 00:00:17;;;;;;;;;4.00;2.50;;;;;7.60;62.19;100569.75;146622;598;46011;-68
2023/11/21 00:03:40;;;;;;;;;4.00;1.50;;;;;7.94;61.78;100618.22;146617;663;47012;-67
2023/11/21 00:06:45;;;;;;;;;2.00;2.00;;;;;9.42;63.25;100877.78;146621;674;45022;-68
2023/11/21 00:09:38;;;;;;;;;6.25;5.00;;;;;9.40;63.30;100876.78;146618;633;46016;-69
2023/11/21 00:12:33;;;;;;;;;5.50;5.00;;;;;9.37;62.87;100880.91;146620;619;46020;-69
2023/11/21 00:15:43;;;;;;;;;4.50;4.00;;;;;9.30;63.04;100882.25;146619;617;46012;-68
2023/11/21 00:18:42;;;;;;;;;5.25;4.25;;;;;9.27;63.06;100873.41;146613;582;46020;-69
2023/11/21 00:21:34;;;;;;;;;9.25;8.00;;;;;9.20;63.26;100879.94;146617;582;47027;-68
2023/11/21 00:24:47;;;;;;;;;10.75;9.25;;;;;9.11;62.22;100869.03;146617;640;46020;-68
2023/11/21 00:27:51;;;;;;;;;10.75;9.75;;;;;9.08;62.80;100881.78;146617;584;46013;-68
2023/11/21 00:30:50;;;;;;;;;12.00;11.00;;;;;9.02;63.78;100872.84;146621;605;47010;-68
2023/11/21 00:33:53;;;;;;;;;13.25;12.50;;;;;9.01;62.79;100886.59;146612;633;46916;-68
2023/11/21 00:36:58;;;;;;;;;16.00;14.00;;;;;8.97;63.57;100876.88;146619;608;45021;-67
2023/11/21 00:39:57;;;;;;;;;19.00;17.00;;;;;8.92;64.07;100877.41;146616;611;46012;-68
2023/11/21 00:42:52;;;;;;;;;19.00;15.25;;;;;8.85;65.08;100878.72;146620;644;46021;-68
2023/11/21 00:46:20;;;;;;;;;14.00;13.00;;;;;8.78;65.25;100877.47;146612;611;46016;-68
2023/11/21 00:49:34;;;;;;;;;12.25;12.00;;;;;7.06;62.66;100587.06;146613;575;46010;-69
2023/11/21 00:52:35;;;;;;;;;12.75;12.25;;;;;8.74;64.93;100890.97;146612;606;47016;-68
2023/11/21 00:55:41;;;;;;;;;10.50;9.75;;;;;8.78;63.99;100894.63;146617;680;47045;-69
2023/11/21 00:58:48;;;;;;;;;;;;;;;;;;;;;
2023/11/21 01:01:56;;;;;;;;;9.75;9.00;;;;;7.06;63.62;100575.87;146615;569;47010;-68
2023/11/21 01:04:56;;;;;;;;;10.00;10.00;;;;;8.83;64.42;100888.06;146617;587;46013;-68
2023/11/21 01:08:02;;;;;;;;;8.50;7.75;;;;;8.87;63.45;100883.97;146617;706;46020;-69
2023/11/21 01:10:56;;;;;;;;;12.00;11.00;;;;;8.83;64.24;100877.72;146619;612;46012;-69
2023/11/21 01:13:56;;;;;;;;;10.50;9.00;;;;;8.78;64.38;100877.47;146620;572;47011;-69
2023/11/21 01:16:51;;;;;;;;;9.00;7.00;;;;;8.72;64.74;100874.50;146618;583;46016;-68
2023/11/21 01:19:48;;;;;;;;;8.75;8.50;;;;;8.68;64.48;100864.75;146614;649;47020;-68
2023/11/21 01:22:49;;;;;;;;;8.75;8.00;;;;;8.68;63.72;100858.69;146617;609;46014;-69
2023/11/21 01:25:47;;;;;;;;;11.75;9.75;;;;;8.69;64.67;100869.16;146620;593;46010;-68
2023/11/21 01:28:42;;;;;;;;;7.25;7.25;;;;;8.72;64.67;100855.50;146615;612;47012;-68
2023/11/21 01:31:40;;;;;;;;;8.25;8.25;;;;;8.72;64.36;100846.06;146622;604;46010;-68
2023/11/21 01:34:41;;;;;;;;;8.75;6.75;;;;;8.68;64.52;100846.66;146614;645;47916;-68
2023/11/21 01:37:36;;;;;;;;;8.00;7.25;;;;;8.68;64.52;100849.25;146621;603;46020;-69
2023/11/21 01:40:35;;;;;;;;;8.00;7.00;;;;;8.69;64.22;100848.47;146619;600;46016;-69
2023/11/21 01:43:28;;;;;;;;;9.75;8.25;;;;;8.67;65.55;100847.47;146620;572;46021;-69
2023/11/21 01:46:29;;;;;;;;;8.50;6.25;;;;;8.59;65.82;100842.62;146618;582;46016;-68
2023/11/21 01:49:33;;;;;;;;;5.00;4.00;;;;;8.44;65.17;100843.50;146614;597;46022;-70
2023/11/21 01:52:35;;;;;;;;;7.25;7.25;;;;;8.36;66.39;100841.19;146615;581;46016;-69
2023/11/21 01:55:36;;;;;;;;;4.75;4.75;;;;;8.29;67.76;100848.56;146621;588;47010;-69
2023/11/21 01:58:50;;;;;;;;;;;;;;;;;;;;;
2023/11/21 02:01:47;;;;;;;;;3.75;3.75;;;;;8.28;67.02;100841.59;146618;603;46020;-68
2023/11/21 02:04:47;;;;;;;;;6.50;4.50;;;;;8.34;67.41;100851.41;146616;694;46016;-68
2023/11/21 02:07:44;;;;;;;;;5.50;4.25;;;;;8.40;67.04;100846.66;146618;651;47020;-70
2023/11/21 02:10:55;;;;;;;;;6.00;4.25;;;;;8.38;66.96;100852.50;146620;569;46012;-71
2023/11/21 02:13:49;;;;;;;;;8.00;6.75;;;;;8.33;66.58;100850.53;146620;589;46020;-71
2023/11/21 02:16:47;;;;;;;;;6.00;5.50;;;;;8.29;68.02;100848.56;146616;597;46012;-71
2023/11/21 02:19:41;;;;;;;;;5.75;4.75;;;;;8.24;67.11;100855.13;146615;570;46014;-72
2023/11/21 02:22:38;;;;;;;;;6.00;5.00;;;;;8.23;67.44;100852.47;146614;611;47016;-71
2023/11/21 02:25:49;;;;;;;;;8.00;5.00;;;;;8.21;66.37;100847.19;146618;579;47020;-71
2023/11/21 02:28:53;;;;;;;;;5.75;5.00;;;;;8.30;67.10;100857.19;146619;626;46032;-71
2023/11/21 02:31:48;;;;;;;;;4.75;4.75;;;;;8.34;67.60;100856.59;146620;623;46028;-72
2023/11/21 02:34:55;;;;;;;;;6.00;5.50;;;;;8.37;67.84;100854.19;146617;595;46914;-71
2023/11/21 02:38:04;;;;;;;;;6.50;5.00;;;;;6.96;66.42;100604.47;146622;616;47010;-71
2023/11/21 02:41:08;;;;;;;;;4.00;4.00;;;;;8.37;67.53;100856.78;146621;567;46035;-70
2023/11/21 02:44:03;;;;;;;;;4.00;4.00;;;;;8.37;66.96;100850.72;146621;602;46020;-69
2023/11/21 02:47:08;;;;;;;;;7.00;6.00;;;;;6.71;65.94;100562.53;146613;645;47938;-71
2023/11/21 02:50:08;;;;;;;;;6.00;6.00;;;;;8.38;68.34;100847.31;146615;571;46011;-70
2023/11/21 02:53:04;;;;;;;;;6.25;6.25;;;;;8.32;68.29;100848.75;146618;583;46016;-70
2023/11/21 02:56:05;;;;;;;;;9.25;8.25;;;;;8.32;68.43;100850.44;146618;585;47020;-71
2023/11/21 02:59:09;;;;;;;;;7.50;7.50;;;;;8.30;67.80;100850.34;146617;599;46016;-71
2023/11/21 03:02:06;;;;;;;;;9.50;8.25;;;;;8.29;68.37;100850.25;146619;584;46029;-70
2023/11/21 03:05:08;;;;;;;;;8.25;8.00;;;;;8.32;67.76;100851.34;146618;574;46013;-70
2023/11/21 03:08:22;;;;;;;;;6.00;6.00;;;;;6.82;66.59;100582.94;146623;643;46020;-71
2023/11/21 03:11:26;;;;;;;;;7.75;7.00;;;;;8.37;67.99;100855.88;146617;620;46017;-70
2023/11/21 03:14:24;;;;;;;;;7.00;6.00;;;;;8.41;67.75;100853.63;146621;563;46020;-71
2023/11/21 03:17:16;;;;;;;;;5.75;4.50;;;;;8.47;67.26;100858.25;146621;602;46012;-70
2023/11/21 03:20:17;;;;;;;;;8.00;8.00;;;;;8.48;66.57;100845.47;146618;583;47010;-71
2023/11/21 03:23:21;;;;;;;;;7.75;7.00;;;;;7.13;65.96;100609.87;146617;601;46016;-70
2023/11/21 03:26:32;;;;;;;;;10.50;6.25;;;;;8.50;66.43;100859.38;146621;570;46020;-69
2023/11/21 03:29:29;;;;;;;;;7.75;6.00;;;;;8.51;67.13;100866.31;146617;663;46016;-69
2023/11/21 03:32:24;;;;;;;;;5.50;5.50;;;;;8.51;67.07;100871.50;146622;601;47010;-71
2023/11/21 03:35:21;;;;;;;;;6.00;4.50;;;;;8.50;66.77;100873.97;146618;579;46016;-71
2023/11/21 03:38:42;;;;;;;;;7.75;5.00;;;;;8.47;65.90;100873.78;146619;603;47020;-70
2023/11/21 03:41:43;;;;;;;;;7.75;7.00;;;;;8.38;66.80;100874.13;146621;605;46013;-71
2023/11/21 03:44:58;;;;;;;;;9.50;8.25;;;;;8.26;67.68;100879.38;146622;579;46020;-71
2023/11/21 03:47:57;;;;;;;;;8.25;7.00;;;;;8.16;68.15;100879.59;146615;582;46032;-70
2023/11/21 03:50:59;;;;;;;;;8.75;5.25;;;;;8.08;67.99;100889.44;146617;573;45021;-69
2023/11/21 03:54:11;;;;;;;;;8.25;7.75;;;;;8.02;68.39;100886.44;146615;573;47016;-69
2023/11/21 03:57:12;;;;;;;;;11.25;10.25;;;;;8.00;68.54;100884.56;146620;593;46031;-70
2023/11/21 04:00:13;;;;;;;;;10.50;7.50;;;;;7.97;68.20;100884.37;146615;637;47012;-70
2023/11/21 04:03:18;;;;;;;;;;;;;;;;;;;;;
2023/11/21 04:06:20;;;;;;;;;13.00;11.25;;;;;8.02;67.58;100880.41;146617;632;46016;-70
2023/11/21 04:09:15;;;;;;;;;16.25;16.00;;;;;8.03;68.48;100880.47;146612;685;47010;-70
2023/11/21 04:12:32;;;;;;;;;18.25;16.50;;;;;8.05;68.28;100885.75;146617;670;46013;-72
2023/11/21 04:15:26;;;;;;;;;17.25;14.75;;;;;8.02;68.95;100885.56;146616;612;46029;-72
2023/11/21 04:18:20;;;;;;;;;18.00;15.00;;;;;8.01;69.34;100886.38;146613;597;47012;-69
2023/11/21 04:21:16;;;;;;;;;17.00;15.50;;;;;7.98;68.81;100887.06;146613;652;46020;-68
2023/11/21 04:24:22;;;;;;;;;14.75;13.00;;;;;6.46;67.72;100629.63;146612;574;47914;-67
2023/11/21 04:27:23;;;;;;;;;9.50;9.00;;;;;7.96;69.46;100877.44;146619;651;46010;-68
2023/11/21 04:30:40;;;;;;;;;7.25;6.00;;;;;7.91;67.76;100889.13;146617;575;47012;-67
2023/11/21 04:33:32;;;;;;;;;9.00;7.75;;;;;7.90;68.91;100883.09;146620;597;47021;-67
2023/11/21 04:36:26;;;;;;;;;7.00;6.25;;;;;7.84;69.32;100880.09;146618;762;46016;-68
2023/11/21 04:39:23;;;;;;;;;8.75;7.75;;;;;7.81;69.35;100880.78;146622;596;46010;-68
2023/11/21 04:42:25;;;;;;;;;9.25;7.75;;;;;7.81;68.58;100885.97;146616;576;48012;-67
2023/11/21 04:45:26;;;;;;;;;8.25;7.50;;;;;7.79;69.24;100890.16;146622;603;47010;-67
2023/11/21 04:48:28;;;;;;;;;9.00;8.00;;;;;7.79;68.92;100890.16;146619;619;47012;-68
2023/11/21 04:51:23;;;;;;;;;11.00;9.00;;;;;7.86;69.32;100886.28;146615;638;46010;-68
2023/11/21 04:54:17;;;;;;;;;8.75;6.25;;;;;7.92;68.70;100888.34;146617;618;46914;-68
2023/11/21 04:57:19;;;;;;;;;9.75;7.25;;;;;7.93;68.37;100883.28;146621;591;46010;-67
2023/11/21 05:00:24;;;;;;;;;10.00;8.75;;;;;7.13;67.06;100750.78;146614;582;46016;-68
2023/11/21 05:03:26;;;;;;;;;12.50;9.00;;;;;7.89;68.54;100889.06;146619;566;47010;-69
2023/11/21 05:06:21;;;;;;;;;12.75;10.00;;;;;7.82;69.32;100907.53;146615;609;46012;-68
2023/11/21 05:09:32;;;;;;;;;11.25;10.00;;;;;6.09;68.10;100617.66;146617;606;47020;-68
2023/11/21 05:12:52;;;;;;;;;14.25;12.00;;;;;6.00;68.81;100613.66;146618;605;46016;-70
2023/11/21 05:15:48;;;;;;;;;12.50;11.00;;;;;7.65;70.35;100909.00;146619;574;46020;-69
2023/11/21 05:18:40;;;;;;;;;11.75;10.25;;;;;7.60;70.20;100915.53;146615;621;46017;-70
2023/11/21 05:21:37;;;;;;;;;9.75;9.75;;;;;7.56;70.20;100910.97;146615;628;46010;-67
2023/11/21 05:24:41;;;;;;;;;9.50;8.25;;;;;7.55;69.96;100910.06;146618;592;47038;-68
2023/11/21 05:28:01;;;;;;;;;;;;;;;;;;;;;
2023/11/21 05:30:58;;;;;;;;;11.50;8.75;;;;;7.56;70.18;100914.44;146619;563;46012;-68
2023/11/21 05:33:54;;;;;;;;;11.25;9.75;;;;;7.60;70.43;100915.53;146620;603;46021;-68
2023/11/21 05:36:50;;;;;;;;;11.25;11.25;;;;;7.61;70.98;100920.81;146618;610;47012;-68
2023/11/21 05:39:46;;;;;;;;;14.25;12.00;;;;;7.66;70.25;100923.66;146618;565;46020;-67
2023/11/21 05:42:48;;;;;;;;;13.25;11.75;;;;;7.71;71.07;100927.47;146616;647;46012;-67
2023/11/21 05:45:53;;;;;;;;;8.25;8.00;;;;;6.89;69.28;100779.34;146618;583;47010;-69
2023/11/21 05:48:52;;;;;;;;;8.00;8.00;;;;;7.79;70.63;100934.03;146618;581;46016;-69
2023/11/21 05:51:48;;;;;;;;;8.00;8.00;;;;;7.85;70.85;100937.03;146613;722;47010;-69
2023/11/21 05:55:09;;;;;;;;;9.75;9.00;;;;;7.60;71.60;100794.25;146614;706;46017;-69
2023/11/21 05:58:08;;;;;;;;;8.75;6.75;;;;;9.43;72.61;100931.31;146614;611;47010;-70
2023/11/21 06:01:00;;;;;;;;;11.50;6.75;;;;;10.28;68.42;100926.75;146617;599;47015;-68
2023/11/21 06:04:03;;;;;;;;;8.00;6.25;;;;;11.17;66.73;100926.31;146622;612;46010;-69
2023/11/21 06:07:02;;;;;;;;;13.25;8.75;;;;;12.17;62.71;100918.31;146618;611;46014;-70
2023/11/21 06:10:14;;;;;;;;;11.50;9.75;;;;;13.23;62.08;100913.62;146620;674;47010;-70
2023/11/21 06:13:24;;;;;;;;;10.75;9.75;;;;;14.55;57.67;100919.09;146617;700;46016;-68
2023/11/21 06:16:33;;;;;;;;;9.75;7.75;;;;;15.73;54.60;100920.69;146619;599;46022;-71
2023/11/21 06:19:28;;;;;;;;;11.25;9.25;;;;;16.60;50.29;100913.03;146615;615;46012;-72
2023/11/21 06:22:26;;;;;;;;;8.75;7.75;;;;;17.02;48.24;100912.50;146613;602;46020;-71
2023/11/21 06:25:28;;;;;;;;;12.25;9.00;;;;;17.05;48.29;100922.19;146617;564;46013;-71
2023/11/21 06:28:23;;;;;;;;;10.25;9.25;;;;;17.16;49.28;100922.47;146620;593;46020;-71
2023/11/21 06:31:19;;;;;;;;;11.50;11.00;;;;;17.43;47.71;100931.09;146614;583;46016;-71
2023/11/21 06:34:17;;;;;;;;;13.50;9.50;;;;;17.43;47.18;100930.19;146616;573;46020;-72
2023/11/21 06:37:20;;;;;;;;;12.75;11.75;;;;;17.18;46.67;100937.41;146615;572;46016;-72
2023/11/21 06:40:24;;;;;;;;;15.50;14.00;;;;;16.87;46.97;100937.38;146617;638;46010;-72
2023/11/21 06:43:21;;;;;;;;;17.00;14.50;;;;;16.39;47.45;100936.81;146610;711;47012;-72
2023/11/21 06:46:22;;;;;;;;;17.00;14.00;;;;;15.88;48.25;100946.47;146617;614;46020;-72
2023/11/21 06:49:16;;;;;;;;;10.75;9.25;;;;;15.48;50.62;100939.84;146614;588;47014;-72
2023/11/21 06:52:13;;;;;;;;;10.75;9.50;;;;;15.27;52.43;100949.56;146604;677;46916;-72
2023/11/21 06:55:13;;;;;;;;;14.00;13.75;;;;;15.21;53.24;100937.19;146610;630;47916;-72
2023/11/21 06:58:17;;;;;;;;;21.25;18.75;;;;;15.25;52.00;100933.84;146617;641;46020;-72
2023/11/21 07:01:25;;;;;;;;;;;;;;;;;;;;;
2023/11/21 07:04:27;;;;;;;;;14.75;13.75;;;;;15.59;51.04;100930.66;146617;606;46020;-73
2023/11/21 07:07:22;;;;;;;;;16.50;14.75;;;;;15.77;52.12;100937.41;146614;572;46016;-73
2023/11/21 07:10:16;;;;;;;;;18.25;13.50;;;;;15.90;50.77;100932.63;146614;584;47019;-72
2023/11/21 07:13:12;;;;;;;;;13.75;12.25;;;;;15.96;50.13;100938.91;146616;612;46016;-71
2023/11/21 07:16:21;;;;;;;;;14.25;12.75;;;;;15.98;50.57;100950.28;146618;638;46021;-72
2023/11/21 07:19:23;;;;;;;;;14.00;12.50;;;;;15.98;50.91;100938.13;146614;645;47016;-72
2023/11/21 07:22:36;;;;;;;;;18.25;17.50;;;;;16.06;50.14;100935.72;146610;609;46020;-72
2023/11/21 07:25:33;;;;;;;;;21.25;19.00;;;;;16.04;50.52;100933.06;146615;605;47012;-72
2023/11/21 07:28:34;;;;;;;;;23.75;19.75;;;;;16.06;50.50;100927.88;146616;580;48010;-71
2023/11/21 07:31:41;;;;;;;;;23.75;21.75;;;;;16.11;50.02;100934.16;146615;609;46014;-71
2023/11/21 07:34:36;;;;;;;;;26.50;20.25;;;;;16.04;49.87;100930.44;146615;602;46010;-71
2023/11/21 07:37:44;;;;;;;;;26.75;24.50;;;;;15.97;50.83;100933.69;146613;588;47017;-72
2023/11/21 07:40:46;;;;;;;;;27.50;23.75;;;;;15.99;51.12;100929.41;146616;604;46021;-71
2023/11/21 07:43:49;;;;;;;;;23.50;22.75;;;;;16.09;49.59;100920.12;146616;602;46012;-72
2023/11/21 07:46:50;;;;;;;;;26.75;26.00;;;;;16.14;50.26;100914.22;146618;636;46010;-71
2023/11/21 07:49:46;;;;;;;;;26.75;26.75;;;;;16.26;50.55;100921.56;146614;628;46016;-71
2023/11/21 07:52:39;;;;;;;;;30.75;27.75;;;;;16.41;50.35;100918.53;146612;573;46021;-71
2023/11/21 07:55:36;;;;;;;;;27.50;24.75;;;;;16.54;49.52;100915.47;146614;557;46016;-71
2023/11/21 07:58:47;;;;;;;;;30.75;26.50;;;;;16.67;49.52;100914.09;146616;592;46020;-71
2023/11/21 08:01:46;;;;;;;;;33.75;31.25;;;;;16.81;49.64;100910.16;146613;589;46014;-71
2023/11/21 08:05:02;;;;;;;;;27.75;27.50;;;;;16.91;49.36;100908.69;146619;627;45020;-71
2023/11/21 08:07:54;;;;;;;;;33.00;28.25;;;;;17.02;48.21;100909.00;146613;706;47013;-71
2023/11/21 08:11:01;;;;;;;;;34.75;29.50;;;;;17.13;47.33;100902.31;146616;565;46020;-71
2023/11/21 08:13:59;;;;;;;;;36.00;31.50;;;;;17.20;47.68;100906.00;146613;598;47015;-71
2023/11/21 08:17:05;;;;;;;;;39.50;33.00;;;;;17.17;47.25;100901.56;146616;566;46020;-72
2023/11/21 08:20:00;;;;;;;;;38.00;33.50;;;;;16.99;48.36;100896.69;146613;670;46916;-71
2023/11/21 08:23:03;;;;;;;;;39.50;33.75;;;;;16.81;47.27;100904.03;146612;564;46021;-71
2023/11/21 08:26:14;;;;;;;;;38.25;33.50;;;;;16.59;47.53;100900.75;146617;597;46012;-71
2023/11/21 08:29:16;;;;;;;;;33.50;29.00;;;;;16.48;50.41;100889.09;146615;636;47010;-71
2023/11/21 08:32:11;;;;;;;;;32.50;29.25;;;;;16.68;50.75;100888.78;146613;626;47014;-71
2023/11/21 08:35:05;;;;;;;;;37.00;29.75;;;;;17.01;50.70;100889.78;146614;581;47020;-71
2023/11/21 08:38:12;;;;;;;;;32.00;28.00;;;;;17.32;49.86;100885.38;146614;569;46023;-71
2023/11/21 08:41:14;;;;;;;;;37.25;31.75;;;;;17.60;48.96;100881.72;146618;563;46014;-71
2023/11/21 08:44:12;;;;;;;;;31.25;28.50;;;;;17.78;48.67;100884.81;146615;633;46013;-71
2023/11/21 08:47:18;;;;;;;;;32.00;28.00;;;;;17.86;47.36;100886.75;146617;615;46020;-71
2023/11/21 08:50:14;;;;;;;;;33.75;29.50;;;;;17.91;47.96;100883.41;146614;585;47012;-71
2023/11/21 08:53:12;;;;;;;;;34.75;30.00;;;;;18.03;47.33;100880.16;146609;564;46021;-71
2023/11/21 08:56:15;;;;;;;;;39.25;31.00;;;;;18.21;48.08;100872.69;146614;563;46014;-72
2023/11/21 08:59:08;;;;;;;;;36.00;31.50;;;;;18.35;48.07;100869.50;146618;583;46014;-71
2023/11/21 09:02:04;;;;;;;;;32.75;29.50;;;;;18.44;46.60;100862.72;146614;566;47012;-71
2023/11/21 09:05:06;;;;;;;;;32.75;30.00;;;;;18.51;47.42;100869.00;146612;646;47010;-71
2023/11/21 09:08:10;;;;;;;;;33.25;30.50;;;;;18.60;46.81;100866.56;146612;576;48012;-71
2023/11/21 09:11:22;;;;;;;;;38.25;31.25;;;;;17.41;47.05;100620.84;146618;628;46020;-71
2023/11/21 09:14:22;;;;;;;;;32.00;27.75;;;;;18.90;46.36;100849.66;146616;586;46015;-71
2023/11/21 09:17:19;;;;;;;;;34.25;28.00;;;;;19.06;45.07;100840.31;146614;634;46010;-72
2023/11/21 09:20:29;;;;;;;;;30.75;29.50;;;;;19.19;44.16;100836.16;146612;662;46017;-72
2023/11/21 09:23:25;;;;;;;;;36.50;28.50;;;;;19.30;45.35;100832.88;146610;580;46030;-72
2023/11/21 09:26:50;;;;;;;;;27.00;24.50;;;;;18.24;46.53;100626.06;146609;566;47016;-72
2023/11/21 09:29:43;;;;;;;;;31.75;28.00;;;;;19.53;43.40;100821.84;146615;573;46020;-72
2023/11/21 09:32:47;;;;;;;;;29.50;26.25;;;;;19.54;44.52;100816.63;146612;576;47014;-70
2023/11/21 09:35:51;;;;;;;;;21.75;20.00;;;;;19.58;42.50;100815.81;146618;594;46019;-70
2023/11/21 09:38:50;;;;;;;;;25.75;21.75;;;;;19.65;43.92;100813.31;146611;596;47012;-70
2023/11/21 09:42:18;;;;;;;;;26.00;20.75;;;;;19.79;45.44;100811.78;146617;634;46020;-71
2023/11/21 09:45:41;;;;;;;;;18.50;15.75;;;;;18.70;45.67;100610.22;146615;663;46012;-70
2023/11/21 09:49:01;;;;;;;;;19.50;18.00;;;;;19.79;44.09;100804.78;146618;681;46010;-71
2023/11/21 09:52:13;;;;;;;;;21.00;17.50;;;;;19.67;45.49;100798.44;146614;632;47013;-70
2023/11/21 09:55:25;;;;;;;;;20.00;17.50;;;;;18.64;44.84;100654.78;146613;639;47010;-71
2023/11/21 09:58:25;;;;;;;;;17.75;16.00;;;;;19.39;42.68;100798.84;146612;569;46017;-71
2023/11/21 10:01:25;;;;;;;;;20.75;19.00;;;;;19.28;45.03;100789.91;146615;652;46020;-70
2023/11/21 10:04:22;;;;;;;;;15.00;15.00;;;;;19.31;45.87;100782.06;146613;678;46914;-69
2023/11/21 10:07:25;;;;;;;;;16.00;14.00;;;;;19.46;46.87;100781.41;146618;583;46010;-69
2023/11/21 10:10:23;;;;;;;;;15.50;14.75;;;;;19.61;44.76;100765.87;146613;572;46012;-71
2023/11/21 10:13:20;;;;;;;;;14.75;13.25;;;;;19.73;43.78;100773.13;146618;689;46021;-70
2023/11/21 10:16:21;;;;;;;;;20.50;18.25;;;;;19.76;44.85;100770.53;146614;696;46016;-73
2023/11/21 10:19:20;;;;;;;;;20.25;18.75;;;;;19.60;45.03;100761.50;146618;682;46020;-69
2023/11/21 10:22:17;;;;;;;;;16.25;16.25;;;;;19.48;45.85;100763.06;146616;647;46016;-68
2023/11/21 10:25:23;;;;;;;;;19.00;17.25;;;;;19.46;45.78;100768.28;146609;604;46020;-69
2023/11/21 10:28:31;;;;;;;;;17.25;16.75;;;;;19.54;46.46;100752.63;146616;641;47012;-68
2023/11/21 10:31:35;;;;;;;;;15.00;14.25;;;;;19.60;45.23;100757.97;146618;632;46020;-68
2023/11/21 10:35:06;;;;;;;;;18.75;16.00;;;;;18.26;46.81;100526.38;146610;583;46017;-70
2023/11/21 10:38:23;;;;;;;;;13.00;11.00;;;;;19.67;46.67;100737.94;146619;620;46030;-68
2023/11/21 10:41:19;;;;;;;;;14.00;13.50;;;;;19.72;45.85;100734.53;146614;690;46016;-69
2023/11/21 10:44:22;;;;;;;;;15.25;15.25;;;;;19.75;45.43;100731.94;146616;573;46021;-68
2023/11/21 10:47:26;;;;;;;;;12.25;11.00;;;;;19.80;44.33;100727.59;146615;701;46012;-69
2023/11/21 10:50:26;;;;;;;;;17.00;15.00;;;;;19.85;45.03;100714.53;146617;686;47010;-67
2023/11/21 10:53:32;;;;;;;;;14.00;13.50;;;;;19.88;44.81;100718.94;146614;578;47016;-69
2023/11/21 10:56:42;;;;;;;;;15.50;15.25;;;;;19.89;44.85;100721.59;146609;592;47020;-71
2023/11/21 11:00:07;;;;;;;;;13.50;13.00;;;;;18.77;45.63;100522.81;146611;582;47012;-69
2023/11/21 11:03:18;;;;;;;;;13.00;11.25;;;;;19.82;45.14;100715.34;146617;695;46020;-68
2023/11/21 11:06:16;;;;;;;;;13.67;13.33;;;;;19.66;44.49;100715.09;146614;582;46017;-69
2023/11/21 11:09:19;;;;;;;;;12.75;12.75;;;;;19.66;45.90;100712.47;146618;582;46020;-68
2023/11/21 11:12:37;;;;;;;;;13.00;12.67;;;;;19.70;43.75;100704.66;146615;574;47013;-69
2023/11/21 11:15:51;;;;;;;;;;;;;;;;;;;;;
2023/11/21 11:19:14;;;;;;;;;13.00;10.75;;;;;19.38;44.78;100717.34;146615;642;47012;-69
2023/11/21 11:22:40;;;;;;;;;11.00;11.00;;;;;19.28;46.48;100718.03;146618;628;46021;-69
2023/11/21 11:26:38;;;;;;;;;8.50;7.00;;;;;17.68;47.04;100428.25;146619;598;46016;-69
2023/11/21 11:30:28;;;;;;;;;13.25;13.25;;;;;18.62;46.33;100570.69;146615;573;47010;-69
2023/11/21 11:33:40;;;;;;;;;12.25;10.50;;;;;19.36;46.05;100709.41;146613;590;47012;-69
2023/11/21 11:37:04;;;;;;;;;11.75;10.50;;;;;19.32;45.34;100711.97;146618;586;46021;-70
2023/11/21 11:40:06;;;;;;;;;14.75;13.75;;;;;19.29;45.05;100711.94;146618;617;46016;-69
2023/11/21 11:43:07;;;;;;;;;12.75;11.75;;;;;19.28;46.21;100704.87;146616;601;46021;-68
2023/11/21 11:46:10;;;;;;;;;14.25;12.50;;;;;19.30;46.11;100704.06;146616;660;46913;-69
2023/11/21 11:49:13;;;;;;;;;16.00;14.00;;;;;19.33;46.44;100705.84;146619;570;46021;-69
2023/11/21 11:52:51;;;;;;;;;14.25;12.50;;;;;18.09;46.79;100493.69;146615;639;47012;-68
2023/11/21 11:55:44;;;;;;;;;10.00;9.33;;;;;19.27;44.98;100697.87;146618;663;47021;-71
2023/11/21 11:58:52;;;;;;;;;10.00;10.00;;;;;19.18;45.04;100698.59;146613;565;47012;-69
2023/11/21 12:01:50;;;;;;;;;7.33;7.33;;;;;19.06;46.42;100701.91;146613;574;46014;-69
2023/11/21 12:04:49;;;;;;;;;7.67;7.67;;;;;18.98;45.98;100694.78;146615;674;46017;-69
2023/11/21 12:08:08;;;;;;;;;11.00;9.25;;;;;17.64;46.01;100456.16;146620;716;47010;-69
2023/11/21 12:11:04;;;;;;;;;8.75;8.00;;;;;18.99;46.91;100693.91;146618;607;46036;-68
2023/11/21 12:14:02;;;;;;;;;9.00;8.33;;;;;19.02;45.09;100694.84;146618;571;47010;-69
2023/11/21 12:17:06;;;;;;;;;9.33;7.67;;;;;19.02;45.02;100684.34;146618;596;46016;-69
2023/11/21 12:20:28;;;;;;;;;10.00;9.33;;;;;19.02;46.48;100684.34;146621;564;47011;-69
2023/11/21 12:23:46;;;;;;;;;11.33;9.33;;;;;17.64;45.16;100442.19;146619;625;46016;-70
2023/11/21 12:26:48;;;;;;;;;10.00;8.00;;;;;18.98;46.18;100671.13;146621;603;46021;-70
2023/11/21 12:29:45;;;;;;;;;8.00;7.00;;;;;18.97;46.57;100678.13;146614;606;47012;-70
2023/11/21 12:33:05;;;;;;;;;7.33;7.33;;;;;19.00;45.74;100677.28;146616;586;46020;-70
2023/11/21 12:36:00;;;;;;;;;11.00;9.33;;;;;19.05;45.74;100666.00;146612;597;46016;-70
2023/11/21 12:39:00;;;;;;;;;9.33;8.33;;;;;18.90;46.27;100656.09;146620;577;47010;-70
2023/11/21 12:42:10;;;;;;;;;10.33;10.00;;;;;18.67;46.41;100662.69;146617;627;47016;-69
2023/11/21 12:45:38;;;;;;;;;11.67;9.33;;;;;17.85;47.87;100552.75;146620;677;46010;-70
2023/11/21 12:48:45;;;;;;;;;8.67;7.00;;;;;18.41;48.18;100649.09;146615;569;47012;-70
2023/11/21 12:51:40;;;;;;;;;9.00;7.00;;;;;18.52;47.83;100654.56;146616;604;47010;-69
2023/11/21 12:54:38;;;;;;;;;11.33;8.33;;;;;18.70;48.23;100653.13;146619;573;47012;-70
2023/11/21 12:58:08;;;;;;;;;;;;;;;;;;;;;
2023/11/21 13:01:11;;;;;;;;;12.50;10.00;;;;;19.29;47.77;100649.72;146616;628;47012;-69
2023/11/21 13:04:17;;;;;;;;;8.00;8.00;;;;;19.43;46.92;100643.75;146610;591;46021;-69
2023/11/21 13:07:30;;;;;;;;;10.50;10.25;;;;;19.62;47.14;100640.50;146617;570;46016;-70
2023/11/21 13:10:36;;;;;;;;;8.00;6.67;;;;;19.75;46.38;100642.47;146619;629;46010;-69
2023/11/21 13:13:33;;;;;;;;;9.25;8.50;;;;;19.89;46.78;100632.12;146616;654;46016;-69
2023/11/21 13:16:34;;;;;;;;;9.25;9.25;;;;;20.11;44.82;100627.09;146617;582;46021;-71
2023/11/21 13:19:43;;;;;;;;;8.00;8.00;;;;;20.36;46.21;100622.97;146613;589;47016;-69
2023/11/21 13:22:51;;;;;;;;;9.00;8.33;;;;;20.74;46.28;100625.97;146618;626;47010;-69
2023/11/21 13:25:48;;;;;;;;;9.75;9.00;;;;;21.11;44.29;100620.97;146616;624;46017;-69
2023/11/21 13:28:54;;;;;;;;;11.67;11.33;;;;;21.42;43.12;100627.34;146618;626;46020;-70
2023/11/21 13:31:50;;;;;;;;;9.33;8.67;;;;;21.49;43.12;100621.22;146618;577;46035;-70
2023/11/21 13:34:52;;;;;;;;;8.33;8.33;;;;;21.45;41.92;100624.72;146616;581;45043;-69
2023/11/21 13:37:48;;;;;;;;;8.00;6.00;;;;;21.43;41.70;100623.81;146618;595;47012;-70
2023/11/21 13:40:55;;;;;;;;;10.00;9.67;;;;;21.29;42.84;100630.75;146621;599;46010;-69
2023/11/21 13:44:16;;;;;;;;;7.67;7.67;;;;;21.09;42.83;100627.97;146615;564;46914;-70
2023/11/21 13:47:21;;;;;;;;;;;;;;;;;;;;;
2023/11/21 13:50:25;;;;;;;;;8.67;7.67;;;;;20.59;43.65;100626.75;146617;613;46016;-68
2023/11/21 13:53:41;;;;;;;;;8.00;8.00;;;;;20.51;42.46;100624.03;146621;575;46022;-70
2023/11/21 13:56:42;;;;;;;;;9.67;7.00;;;;;20.38;44.13;100626.50;146618;571;46012;-69
2023/11/21 13:59:36;;;;;;;;;8.00;5.67;;;;;19.85;43.03;100525.06;146624;565;45020;-69
2023/11/21 14:02:43;;;;;;;;;11.00;11.00;;;;;18.93;44.46;100385.53;146616;575;46017;-69
2023/11/21 14:05:42;;;;;;;;;13.50;12.00;;;;;20.04;43.47;100607.72;146614;667;46020;-70
2023/11/21 14:08:48;;;;;;;;;11.50;9.50;;;;;19.73;44.04;100615.25;146618;565;47016;-67
2023/11/21 14:11:44;;;;;;;;;10.33;9.00;;;;;19.42;43.86;100616.59;146625;569;46010;-69
2023/11/21 14:14:44;;;;;;;;;8.00;8.00;;;;;19.10;44.93;100622.28;146618;590;46016;-69
2023/11/21 14:18:10;;;;;;;;;10.00;10.00;;;;;18.85;45.85;100621.03;146623;702;46011;-69